Time;durP1;ratioP1;P1;durP2;ratioP2;P2;SDS_P1;SDS_P2;PMS_P1;PMS_P2;Temp;Humidity;BMP_temperature;BMP_pressure;BME280_temperature;BME280_humidity;BME280_pressure;Samples;Min_cycle;Max_cycle;Signal;HPM_P1;HPM_P2
2022/04/08 00:01:19;;;;;;;0.45;0.45;;;14.00;75.30;;;;;;5052656;28;20040;-74
2022/04/08 00:03:48;;;;;;;2.85;0.50;;;13.90;76.00;;;;;;5052862;28;20025;-73
2022/04/08 00:06:14;;;;;;;2.05;0.47;;;13.90;76.50;;;;;;5053106;28;20102;-73
2022/04/08 00:08:58;;;;;;;1.80;0.40;;;13.90;76.90;;;;;;5053110;28;20462;-74
2022/04/08 00:11:25;;;;;;;1.50;0.40;;;13.80;78.20;;;;;;5052626;28;20504;-74
2022/04/08 00:13:52;;;;;;;1.88;0.50;;;13.70;78.40;;;;;;5052309;28;20040;-73
2022/04/08 00:16:19;;;;;;;1.88;0.47;;;13.70;79.50;;;;;;5052510;28;20470;-74
2022/04/08 00:18:45;;;;;;;1.05;0.50;;;13.60;79.80;;;;;;5052782;28;20021;-74
2022/04/08 00:21:11;;;;;;;0.85;0.50;;;13.50;79.20;;;;;;5052513;28;20029;-73
2022/04/08 00:23:37;;;;;;;0.65;0.40;;;13.40;80.20;;;;;;5052680;28;20102;-73
2022/04/08 00:26:03;;;;;;;0.70;0.40;;;13.30;80.00;;;;;;5051857;28;20428;-73
2022/04/08 00:28:29;;;;;;;2.78;0.57;;;13.30;79.60;;;;;;5052628;28;20025;-74
2022/04/08 00:30:54;;;;;;;0.75;0.63;;;13.20;79.20;;;;;;5051749;28;20032;-73
2022/04/08 00:33:20;;;;;;;2.25;0.65;;;13.10;79.80;;;;;;5052206;28;20041;-73
2022/04/08 00:35:46;;;;;;;1.20;0.50;;;13.10;80.80;;;;;;5052327;28;20033;-73
2022/04/08 00:38:11;;;;;;;0.73;0.50;;;13.00;81.80;;;;;;5051919;28;20029;-73
2022/04/08 00:40:37;;;;;;;1.17;0.50;;;13.00;82.30;;;;;;5052168;28;20025;-75
2022/04/08 00:43:16;;;;;;;2.15;0.90;;;12.90;83.30;;;;;;5051197;28;20025;-74
2022/04/08 00:45:42;;;;;;;0.60;0.47;;;12.80;83.80;;;;;;5052425;28;20029;-74
2022/04/08 00:48:08;;;;;;;0.57;0.47;;;12.80;84.50;;;;;;5051753;28;20665;-74
2022/04/08 00:50:38;;;;;;;0.90;0.52;;;12.80;85.20;;;;;;5052264;28;20036;-73
2022/04/08 00:53:08;;;;;;;0.90;0.47;;;12.70;85.60;;;;;;5051645;28;20041;-73
2022/04/08 00:55:36;;;;;;;0.93;0.50;;;12.70;86.10;;;;;;5051818;28;20545;-74
2022/04/08 00:58:03;;;;;;;1.25;0.50;;;12.60;86.40;;;;;;5051664;28;20089;-74
2022/04/08 01:00:33;;;;;;;0.82;0.40;;;12.60;86.90;;;;;;5052438;28;20033;-74
2022/04/08 01:02:59;;;;;;;0.80;0.43;;;12.60;85.90;;;;;;5051363;28;20029;-73
2022/04/08 01:05:26;;;;;;;0.55;0.50;;;12.60;85.10;;;;;;5052064;28;20087;-74
2022/04/08 01:07:53;;;;;;;1.50;0.70;;;12.60;85.50;;;;;;5051680;28;20037;-72
2022/04/08 01:10:19;;;;;;;1.85;0.55;;;12.60;85.80;;;;;;5052028;28;20048;-74
2022/04/08 01:12:45;;;;;;;2.63;0.50;;;12.60;87.20;;;;;;5051694;28;20036;-73
2022/04/08 01:15:10;;;;;;;1.20;0.60;;;12.50;88.80;;;;;;5050506;28;20029;-74
2022/04/08 01:17:36;;;;;;;1.77;0.40;;;12.50;90.00;;;;;;5051864;28;20029;-74
2022/04/08 01:20:03;;;;;;;0.77;0.40;;;12.40;90.70;;;;;;5051312;28;20072;-74
2022/04/08 01:22:47;;;;;;;3.38;0.60;;;12.40;91.20;;;;;;5051746;28;20112;-75
2022/04/08 01:25:13;;;;;;;1.30;0.40;;;12.30;91.50;;;;;;5051245;28;20457;-74
2022/04/08 01:27:40;;;;;;;1.05;0.47;;;12.30;91.40;;;;;;5051841;28;20021;-74
2022/04/08 01:30:12;;;;;;;1.00;0.45;;;12.30;91.50;;;;;;5051179;28;20029;-73
2022/04/08 01:32:38;;;;;;;1.30;0.50;;;12.30;91.10;;;;;;5051745;28;20116;-74
2022/04/08 01:35:04;;;;;;;3.65;0.95;;;12.20;88.50;;;;;;5051383;28;20128;-73
2022/04/08 01:37:30;;;;;;;2.58;0.80;;;12.10;81.80;;;;;;5051736;28;20139;-73
2022/04/08 01:39:56;;;;;;;1.98;0.70;;;12.20;80.10;;;;;;5051116;28;20035;-73
2022/04/08 01:42:24;;;;;;;2.63;1.02;;;12.10;78.60;;;;;;5051468;28;20099;-73
2022/04/08 01:44:50;;;;;;;2.28;0.80;;;12.10;78.90;;;;;;5051695;28;20033;-74
2022/04/08 01:47:16;;;;;;;2.53;0.63;;;12.00;78.40;;;;;;5051042;28;20025;-73
2022/04/08 01:49:41;;;;;;;1.90;0.70;;;12.00;80.80;;;;;;5051688;28;20033;-73
2022/04/08 01:52:07;;;;;;;3.55;0.70;;;12.00;83.00;;;;;;5050694;28;20036;-74
2022/04/08 01:54:33;;;;;;;3.38;0.77;;;12.00;86.60;;;;;;5051263;28;20103;-74
2022/04/08 01:56:58;;;;;;;3.90;0.85;;;11.90;90.90;;;;;;5050442;28;20052;-72
2022/04/08 01:59:24;;;;;;;3.22;0.90;;;11.80;91.70;;;;;;5051518;28;20151;-74
2022/04/08 02:01:50;;;;;;;4.60;1.00;;;11.70;91.10;;;;;;5051405;28;20378;-74
2022/04/08 02:04:16;;;;;;;3.78;1.40;;;11.70;90.30;;;;;;5050893;28;20033;-75
2022/04/08 02:06:42;;;;;;;6.28;1.60;;;11.50;88.00;;;;;;5051031;28;20048;-73
2022/04/08 02:09:09;;;;;;;2.42;0.80;;;11.50;86.20;;;;;;5050580;28;20033;-73
2022/04/08 02:11:35;;;;;;;2.08;1.00;;;11.40;86.00;;;;;;5051451;28;20040;-74
2022/04/08 02:14:02;;;;;;;2.38;0.82;;;11.40;86.30;;;;;;5050672;28;20064;-72
2022/04/08 02:16:27;;;;;;;4.93;0.93;;;11.40;85.30;;;;;;5051270;28;20028;-74
2022/04/08 02:18:53;;;;;;;2.58;1.10;;;11.30;85.00;;;;;;5051359;28;20048;-74
2022/04/08 02:21:22;;;;;;;3.25;0.98;;;11.30;84.70;;;;;;5050507;28;20037;-74
2022/04/08 02:23:49;;;;;;;4.43;1.20;;;11.20;83.90;;;;;;5051375;28;20052;-74
2022/04/08 02:26:16;;;;;;;5.10;0.90;;;11.10;84.10;;;;;;5052617;28;20288;-74
2022/04/08 02:28:42;;;;;;;5.15;1.23;;;11.10;85.00;;;;;;5054620;28;20033;-74
2022/04/08 02:31:08;;;;;;;3.15;1.20;;;11.10;84.60;;;;;;5054341;28;20060;-73
2022/04/08 02:33:34;;;;;;;6.25;1.30;;;11.10;84.70;;;;;;5054797;28;20077;-74
2022/04/08 02:36:00;;;;;;;5.60;1.50;;;11.10;83.50;;;;;;5054226;28;20056;-72
2022/04/08 02:38:26;;;;;;;6.30;1.58;;;11.00;82.10;;;;;;5054696;28;20465;-73
2022/04/08 02:40:51;;;;;;;4.93;1.38;;;11.00;80.40;;;;;;5054727;28;20029;-73
2022/04/08 02:43:17;;;;;;;2.78;1.10;;;11.00;80.40;;;;;;5053943;28;20029;-73
2022/04/08 02:45:43;;;;;;;5.40;1.65;;;11.00;79.00;;;;;;5054801;28;20032;-73
2022/04/08 02:48:08;;;;;;;8.20;1.52;;;11.00;78.80;;;;;;5053895;28;20025;-72
2022/04/08 02:50:34;;;;;;;5.85;1.45;;;10.90;79.20;;;;;;5054194;28;20461;-74
2022/04/08 02:52:59;;;;;;;5.18;1.45;;;10.90;79.00;;;;;;5053341;28;20121;-72
2022/04/08 02:55:25;;;;;;;5.30;1.27;;;10.90;78.70;;;;;;5054310;28;20040;-74
2022/04/08 02:57:51;;;;;;;6.53;1.50;;;10.80;77.80;;;;;;5054487;28;20033;-74
2022/04/08 03:00:18;;;;;;;5.93;1.52;;;10.80;77.90;;;;;;5053741;28;20377;-74
2022/04/08 03:02:45;;;;;;;5.40;1.48;;;10.80;77.10;;;;;;5054284;28;20036;-74
2022/04/08 03:05:12;;;;;;;3.33;1.35;;;10.80;77.40;;;;;;5053742;28;20082;-73
2022/04/08 03:07:38;;;;;;;4.03;1.63;;;10.80;77.40;;;;;;5054263;28;20378;-73
2022/04/08 03:10:05;;;;;;;4.03;1.40;;;10.80;77.90;;;;;;5053561;28;20108;-73
2022/04/08 03:12:31;;;;;;;5.07;1.30;;;10.70;78.10;;;;;;5053900;28;20040;-74
2022/04/08 03:14:58;;;;;;;8.02;2.20;;;10.70;79.10;;;;;;5054410;28;20025;-73
2022/04/08 03:17:23;;;;;;;7.38;2.22;;;10.60;78.60;;;;;;5054014;28;20044;-72
2022/04/08 03:19:49;;;;;;;7.47;1.48;;;10.60;80.00;;;;;;5054132;28;20099;-73
2022/04/08 03:22:19;;;;;;;4.53;1.13;;;10.60;80.50;;;;;;5053064;28;20449;-73
2022/04/08 03:24:45;;;;;;;5.65;1.73;;;10.60;81.40;;;;;;5053750;28;20028;-75
2022/04/08 03:27:11;;;;;;;8.13;1.85;;;10.50;80.20;;;;;;5052955;28;20031;-73
2022/04/08 03:29:36;;;;;;;5.97;1.80;;;10.50;79.80;;;;;;5053485;28;20355;-74
2022/04/08 03:32:02;;;;;;;6.25;1.50;;;10.50;79.80;;;;;;5053157;28;20058;-74
2022/04/08 03:34:28;;;;;;;5.93;1.45;;;10.50;78.60;;;;;;5053732;28;20037;-73
2022/04/08 03:36:54;;;;;;;3.50;1.40;;;10.50;78.80;;;;;;5052891;28;20095;-73
2022/04/08 03:39:20;;;;;;;7.05;1.50;;;10.50;78.00;;;;;;5052857;28;20032;-74
2022/04/08 03:41:45;;;;;;;6.97;1.40;;;10.40;76.20;;;;;;5053466;28;20036;-75
2022/04/08 03:44:11;;;;;;;8.65;2.22;;;10.40;75.80;;;;;;5052645;28;20025;-73
2022/04/08 03:46:37;;;;;;;8.25;1.70;;;10.40;75.00;;;;;;5052079;28;20377;-74
2022/04/08 03:49:04;;;;;;;4.53;1.50;;;10.50;75.00;;;;;;5051559;28;20075;-73
2022/04/08 03:51:30;;;;;;;3.35;1.40;;;10.50;74.90;;;;;;5053492;28;20029;-73
2022/04/08 03:53:56;;;;;;;4.38;1.55;;;10.40;74.70;;;;;;5052926;28;20040;-74
2022/04/08 03:56:21;;;;;;;5.00;1.33;;;10.50;73.80;;;;;;5052555;28;20057;-72
2022/04/08 03:58:47;;;;;;;6.32;1.42;;;10.50;73.30;;;;;;5050268;28;20021;-73
2022/04/08 04:01:12;;;;;;;6.43;1.25;;;10.50;72.30;;;;;;5051596;28;20482;-73
2022/04/08 04:03:38;;;;;;;4.03;1.45;;;10.50;72.00;;;;;;5052948;28;20100;-73
2022/04/08 04:06:04;;;;;;;4.97;1.42;;;10.50;71.70;;;;;;5052810;28;20029;-73
2022/04/08 04:08:29;;;;;;;4.38;1.27;;;10.50;71.50;;;;;;5053291;28;20428;-74
2022/04/08 04:10:55;;;;;;;4.55;1.10;;;10.50;71.20;;;;;;5052618;28;20025;-73
2022/04/08 04:13:20;;;;;;;4.65;1.05;;;10.40;71.20;;;;;;5052002;28;20068;-74
2022/04/08 04:15:46;;;;;;;3.92;1.45;;;10.50;71.30;;;;;;5051825;28;20104;-73
2022/04/08 04:18:12;;;;;;;5.65;1.30;;;10.40;71.60;;;;;;5052270;28;20357;-74
2022/04/08 04:20:37;;;;;;;5.65;1.40;;;10.50;71.70;;;;;;5052416;28;20462;-75
2022/04/08 04:23:03;;;;;;;4.82;1.40;;;10.50;72.30;;;;;;5052005;28;20037;-72
2022/04/08 04:25:29;;;;;;;3.55;1.40;;;10.40;72.60;;;;;;5052703;28;20025;-74
2022/04/08 04:27:55;;;;;;;4.57;1.35;;;10.40;73.20;;;;;;5052563;28;20021;-74
2022/04/08 04:30:40;;;;;;;5.65;1.38;;;10.40;73.20;;;;;;5051884;28;20029;-75
2022/04/08 04:33:08;;;;;;;3.28;1.17;;;10.40;73.60;;;;;;5051499;28;20033;-74
2022/04/08 04:35:38;;;;;;;4.45;1.35;;;10.40;73.40;;;;;;5052604;28;20036;-74
2022/04/08 04:38:05;;;;;;;5.25;1.50;;;10.40;74.10;;;;;;5051899;28;20036;-73
2022/04/08 04:40:31;;;;;;;5.72;1.30;;;10.40;74.00;;;;;;5052505;28;20025;-74
2022/04/08 04:42:57;;;;;;;5.47;1.88;;;10.40;74.50;;;;;;5052393;28;20036;-74
2022/04/08 04:45:23;;;;;;;8.70;1.48;;;10.40;75.20;;;;;;5051674;28;20355;-73
2022/04/08 04:47:49;;;;;;;4.95;1.05;;;10.40;74.90;;;;;;5052208;28;20108;-74
2022/04/08 04:50:14;;;;;;;3.65;1.38;;;10.30;74.90;;;;;;5050748;28;20446;-73
2022/04/08 04:52:40;;;;;;;3.45;1.42;;;10.40;74.80;;;;;;5052069;28;20029;-74
2022/04/08 04:55:06;;;;;;;4.60;1.33;;;10.40;75.40;;;;;;5050948;28;20462;-73
2022/04/08 04:57:32;;;;;;;6.10;1.60;;;10.40;75.60;;;;;;5052264;28;20021;-74
2022/04/08 04:59:58;;;;;;;2.50;1.00;;;10.40;75.50;;;;;;5052026;28;20032;-75
2022/04/08 05:02:24;;;;;;;5.45;1.50;;;10.40;75.70;;;;;;5051456;28;20251;-74
2022/04/08 05:04:49;;;;;;;5.20;1.30;;;10.50;74.80;;;;;;5051649;28;20028;-75
2022/04/08 05:07:15;;;;;;;7.50;1.33;;;10.50;75.10;;;;;;5050917;28;20040;-74
2022/04/08 05:09:41;;;;;;;5.22;1.30;;;10.50;74.30;;;;;;5052286;28;20029;-75
2022/04/08 05:12:08;;;;;;;1.63;1.05;;;10.50;73.20;;;;;;5051140;28;20033;-73
2022/04/08 05:14:34;;;;;;;4.68;1.35;;;10.60;73.50;;;;;;5051637;28;20036;-73
2022/04/08 05:17:00;;;;;;;6.28;1.60;;;10.60;73.50;;;;;;5051697;28;20029;-73
2022/04/08 05:19:26;;;;;;;4.75;1.50;;;10.60;72.10;;;;;;5050788;28;20028;-73
2022/04/08 05:21:52;;;;;;;3.25;1.20;;;10.60;71.80;;;;;;5051624;28;20454;-74
2022/04/08 05:24:21;;;;;;;6.20;1.70;;;10.70;71.60;;;;;;5050946;28;20036;-73
2022/04/08 05:26:47;;;;;;;6.40;1.40;;;10.70;72.50;;;;;;5051848;28;20358;-73
2022/04/08 05:29:12;;;;;;;11.50;1.83;;;10.80;71.00;;;;;;5051383;28;20112;-75
2022/04/08 05:31:38;;;;;;;5.22;1.23;;;10.80;70.60;;;;;;5052028;28;20029;-74
2022/04/08 05:34:04;;;;;;;6.40;1.40;;;10.80;69.70;;;;;;5051378;28;20063;-75
2022/04/08 05:36:30;;;;;;;3.67;1.33;;;10.70;69.60;;;;;;5051229;28;20094;-73
2022/04/08 05:38:56;;;;;;;6.93;2.00;;;10.80;70.10;;;;;;5051470;28;20040;-73
2022/04/08 05:41:22;;;;;;;6.50;1.80;;;10.90;70.50;;;;;;5050414;28;20032;-75
2022/04/08 05:43:47;;;;;;;5.95;1.40;;;10.90;70.80;;;;;;5051463;28;20059;-74
2022/04/08 05:46:14;;;;;;;5.75;1.50;;;10.80;71.10;;;;;;5032072;28;20029;-75
2022/04/08 05:48:39;;;;;;;7.15;1.80;;;10.80;71.80;;;;;;5030273;28;20370;-74
2022/04/08 05:51:05;;;;;;;2.83;1.25;;;10.80;72.00;;;;;;5031478;28;20125;-74
2022/04/08 05:53:31;;;;;;;5.10;1.33;;;10.90;72.30;;;;;;5030852;28;20120;-74
2022/04/08 05:55:57;;;;;;;7.72;1.20;;;10.90;72.20;;;;;;5030616;28;20068;-73
2022/04/08 05:58:23;;;;;;;8.48;1.63;;;10.90;71.70;;;;;;5031067;28;20037;-74
2022/04/08 06:00:50;;;;;;;5.40;1.38;;;10.90;69.80;;;;;;5032890;28;20029;-73
2022/04/08 06:03:16;;;;;;;3.95;1.10;;;10.90;67.90;;;;;;5034510;28;20037;-73
2022/04/08 06:05:41;;;;;;;4.03;1.30;;;10.90;66.20;;;;;;5035133;28;20029;-73
2022/04/08 06:08:08;;;;;;;4.47;0.90;;;10.90;66.70;;;;;;5035234;28;20021;-73
2022/04/08 06:10:34;;;;;;;3.33;0.90;;;10.90;65.00;;;;;;5042867;28;20458;-73
2022/04/08 06:13:01;;;;;;;2.83;1.10;;;10.90;64.50;;;;;;5054975;28;20029;-74
2022/04/08 06:15:27;;;;;;;6.53;1.27;;;10.90;64.60;;;;;;5054408;28;20021;-72
2022/04/08 06:17:57;;;;;;;2.60;1.10;;;10.90;64.10;;;;;;5054879;28;20029;-74
2022/04/08 06:20:24;;;;;;;3.45;1.10;;;10.90;64.00;;;;;;5054279;28;20033;-73
2022/04/08 06:22:51;;;;;;;3.80;1.25;;;10.90;63.70;;;;;;5055217;28;20029;-74
2022/04/08 06:25:22;;;;;;;3.95;1.13;;;11.00;64.90;;;;;;5054313;28;20029;-72
2022/04/08 06:28:04;;;;;;;4.88;1.42;;;10.90;65.00;;;;;;5054560;28;20086;-73
2022/04/08 06:30:37;;;;;;;7.20;1.20;;;10.90;65.30;;;;;;5054194;28;20224;-75
2022/04/08 06:33:04;;;;;;;6.50;1.40;;;10.90;65.30;;;;;;5054600;28;20025;-74
2022/04/08 06:35:30;;;;;;;9.77;1.10;;;10.90;64.80;;;;;;5054054;28;20254;-73
2022/04/08 06:38:08;;;;;;;6.32;1.27;;;10.90;65.20;;;;;;5054309;28;20112;-74
2022/04/08 06:40:37;;;;;;;3.25;1.30;;;10.90;65.60;;;;;;5053848;28;20528;-74
2022/04/08 06:43:03;;;;;;;3.75;1.35;;;10.90;65.90;;;;;;5054655;28;20033;-74
2022/04/08 06:45:29;;;;;;;2.47;1.13;;;10.90;66.70;;;;;;5053940;28;20032;-74
2022/04/08 06:47:55;;;;;;;3.33;1.23;;;10.90;66.70;;;;;;5054395;28;20363;-73
2022/04/08 06:50:21;;;;;;;4.70;1.33;;;10.90;68.00;;;;;;5053724;28;20112;-73
2022/04/08 06:52:47;;;;;;;4.00;1.05;;;10.90;68.40;;;;;;5053908;28;20072;-74
2022/04/08 06:55:13;;;;;;;3.60;1.27;;;11.00;69.40;;;;;;5053268;28;20072;-73
2022/04/08 06:57:40;;;;;;;5.07;1.23;;;11.00;70.00;;;;;;5054441;28;20423;-74
2022/04/08 07:00:08;;;;;;;5.63;1.13;;;10.90;69.80;;;;;;5054469;28;20374;-75
2022/04/08 07:02:34;;;;;;;5.72;1.27;;;10.90;70.40;;;;;;5053946;28;20052;-73
2022/04/08 07:04:59;;;;;;;5.18;1.38;;;11.00;70.90;;;;;;5054116;28;20063;-73
2022/04/08 07:07:31;;;;;;;4.95;1.30;;;11.00;71.30;;;;;;5053437;28;20442;-73
2022/04/08 07:09:57;;;;;;;4.22;1.10;;;11.10;70.30;;;;;;5053876;28;20123;-74
2022/04/08 07:12:26;;;;;;;4.55;1.20;;;11.10;69.70;;;;;;5052450;28;20057;-74
2022/04/08 07:14:52;;;;;;;3.03;1.30;;;11.10;70.00;;;;;;5053847;28;20477;-73
2022/04/08 07:17:28;;;;;;;7.30;1.75;;;11.20;69.60;;;;;;5053006;28;20025;-74
2022/04/08 07:19:54;;;;;;;4.63;1.20;;;11.20;69.60;;;;;;5053869;28;20033;-74
2022/04/08 07:22:20;;;;;;;5.75;1.40;;;11.20;68.60;;;;;;5053298;28;20129;-73
2022/04/08 07:24:46;;;;;;;9.40;1.30;;;11.20;68.30;;;;;;5053790;28;20489;-74
2022/04/08 07:27:11;;;;;;;5.05;1.55;;;11.10;68.50;;;;;;5053721;28;20036;-73
2022/04/08 07:29:37;;;;;;;2.72;1.10;;;11.10;69.10;;;;;;5053106;28;20071;-74
2022/04/08 07:32:03;;;;;;;2.65;1.00;;;11.20;69.20;;;;;;5053511;28;20029;-75
2022/04/08 07:34:28;;;;;;;4.18;1.30;;;11.20;68.60;;;;;;5052778;28;20040;-74
2022/04/08 07:36:54;;;;;;;6.05;1.50;;;11.20;68.70;;;;;;5053507;28;20033;-74
2022/04/08 07:39:19;;;;;;;2.92;1.42;;;11.20;69.50;;;;;;5053067;28;20104;-73
2022/04/08 07:41:45;;;;;;;4.47;1.40;;;11.20;69.40;;;;;;5053413;28;20032;-73
2022/04/08 07:44:11;;;;;;;2.35;1.25;;;11.20;69.10;;;;;;5053688;28;20033;-73
2022/04/08 07:46:37;;;;;;;5.38;1.42;;;11.20;69.30;;;;;;5052759;28;20055;-73
2022/04/08 07:49:02;;;;;;;8.48;1.40;;;11.20;69.00;;;;;;5053269;28;20021;-74
2022/04/08 07:51:28;;;;;;;3.08;1.30;;;11.20;69.50;;;;;;5052790;28;20029;-74
2022/04/08 07:53:54;;;;;;;6.82;1.17;;;11.20;69.50;;;;;;5053297;28;20072;-74
2022/04/08 07:56:19;;;;;;;5.57;1.20;;;11.30;69.40;;;;;;5052533;28;20049;-72
2022/04/08 07:58:47;;;;;;;8.05;1.55;;;11.30;69.60;;;;;;5053229;28;20127;-73
2022/04/08 08:01:13;;;;;;;3.90;1.33;;;11.40;69.20;;;;;;5053097;28;20432;-73
2022/04/08 08:03:38;;;;;;;5.18;1.20;;;11.40;68.80;;;;;;5052387;28;20025;-72
2022/04/08 08:06:04;;;;;;;3.95;1.30;;;11.30;67.90;;;;;;5052913;28;20021;-74
2022/04/08 08:08:30;;;;;;;2.17;0.98;;;11.30;68.00;;;;;;5052243;28;20032;-74
2022/04/08 08:10:56;;;;;;;3.55;1.17;;;11.40;67.90;;;;;;5053060;28;20120;-73
2022/04/08 08:13:22;;;;;;;5.00;1.02;;;11.40;67.50;;;;;;5052152;28;20106;-72
2022/04/08 08:15:47;;;;;;;8.35;1.30;;;11.40;67.20;;;;;;5052500;28;20024;-73
2022/04/08 08:18:13;;;;;;;9.15;1.60;;;11.40;67.20;;;;;;5052287;28;20036;-74
2022/04/08 08:20:39;;;;;;;4.93;1.67;;;11.40;67.30;;;;;;5052043;28;20374;-73
2022/04/08 08:23:08;;;;;;;3.20;1.30;;;11.40;67.70;;;;;;5052176;28;20099;-73
2022/04/08 08:25:33;;;;;;;3.80;1.38;;;11.40;68.20;;;;;;5051626;28;20508;-73
2022/04/08 08:28:01;;;;;;;4.40;1.30;;;11.40;68.80;;;;;;5052658;28;20150;-74
2022/04/08 08:30:29;;;;;;;7.20;1.58;;;11.50;69.10;;;;;;5051982;28;20033;-73
2022/04/08 08:32:56;;;;;;;7.28;1.73;;;11.50;69.10;;;;;;5052355;28;20589;-74
2022/04/08 08:35:22;;;;;;;2.78;1.33;;;11.50;69.40;;;;;;5051865;28;20029;-72
2022/04/08 08:37:49;;;;;;;7.55;1.90;;;11.50;69.60;;;;;;5052651;28;20485;-73
2022/04/08 08:40:16;;;;;;;3.90;1.30;;;11.40;69.20;;;;;;5052334;28;20445;-74
2022/04/08 08:42:43;;;;;;;5.43;1.40;;;11.50;69.80;;;;;;5051773;28;20119;-74
2022/04/08 08:45:11;;;;;;;4.53;1.50;;;11.50;69.60;;;;;;5052167;28;20437;-74
2022/04/08 08:47:37;;;;;;;7.05;1.60;;;11.50;69.40;;;;;;5051536;28;20021;-74
2022/04/08 08:50:04;;;;;;;4.75;1.92;;;11.50;68.30;;;;;;5051805;28;20025;-74
2022/04/08 08:52:31;;;;;;;9.55;1.67;;;11.50;67.80;;;;;;5051022;28;20025;-73
2022/04/08 08:54:58;;;;;;;5.63;1.80;;;11.60;67.80;;;;;;5051812;28;20029;-73
2022/04/08 08:57:24;;;;;;;4.63;1.40;;;11.60;67.60;;;;;;5051427;28;20044;-72
2022/04/08 09:00:13;;;;;;;7.53;1.40;;;11.60;67.20;;;;;;5051947;28;20355;-73
2022/04/08 09:02:39;;;;;;;4.90;1.45;;;11.70;66.50;;;;;;5051317;28;20090;-74
2022/04/08 09:05:16;;;;;;;5.45;1.30;;;11.70;65.70;;;;;;5051592;28;20083;-74
2022/04/08 09:07:42;;;;;;;6.40;1.70;;;11.70;65.80;;;;;;5051319;28;20189;-73
2022/04/08 09:10:08;;;;;;;6.30;1.77;;;11.70;65.90;;;;;;5051783;28;20071;-74
2022/04/08 09:12:34;;;;;;;3.20;1.20;;;11.80;65.80;;;;;;5051335;28;20032;-74
2022/04/08 09:15:01;;;;;;;14.02;2.95;;;11.90;64.40;;;;;;5051611;28;20377;-75
2022/04/08 09:17:28;;;;;;;7.43;1.65;;;11.90;64.00;;;;;;5051508;28;20056;-72
2022/04/08 09:19:56;;;;;;;7.63;2.17;;;12.00;63.90;;;;;;5051868;28;20029;-73
2022/04/08 09:22:29;;;;;;;4.88;1.30;;;11.90;61.80;;;;;;5051508;28;20057;-73
2022/04/08 09:25:04;;;;;;;4.57;1.10;;;12.00;61.80;;;;;;5051807;28;20029;-74
2022/04/08 09:27:34;;;;;;;9.55;2.10;;;12.00;61.50;;;;;;5050727;28;20392;-73
2022/04/08 09:29:59;;;;;;;4.55;1.50;;;12.10;60.90;;;;;;5051540;28;20025;-73
2022/04/08 09:32:27;;;;;;;7.78;1.88;;;12.20;60.30;;;;;;5050974;28;20443;-73
2022/04/08 09:34:53;;;;;;;4.03;1.40;;;12.20;59.90;;;;;;5051520;28;20482;-74
2022/04/08 09:37:19;;;;;;;3.10;1.70;;;12.30;59.40;;;;;;5055649;28;20029;-73
2022/04/08 09:39:56;;;;;;;6.55;1.80;;;12.40;58.90;;;;;;5054956;28;20021;-73
2022/04/08 09:42:23;;;;;;;14.40;2.50;;;12.60;58.40;;;;;;5055550;28;20039;-74
2022/04/08 09:44:49;;;;;;;7.22;1.58;;;12.80;58.60;;;;;;5055662;28;20040;-74
2022/04/08 09:47:15;;;;;;;4.68;1.40;;;12.90;58.20;;;;;;5055587;28;20032;-74
2022/04/08 09:49:41;;;;;;;4.53;1.10;;;13.00;57.80;;;;;;5054826;28;20105;-73
2022/04/08 09:52:08;;;;;;;5.43;1.77;;;13.10;57.40;;;;;;5055460;28;20083;-74
2022/04/08 09:54:37;;;;;;;5.82;1.60;;;13.20;57.60;;;;;;5054639;28;20056;-75
2022/04/08 09:57:04;;;;;;;5.45;1.70;;;13.40;57.20;;;;;;5054935;28;20049;-74
2022/04/08 09:59:30;;;;;;;3.92;1.50;;;13.40;57.50;;;;;;5054750;28;20097;-73
2022/04/08 10:02:01;;;;;;;4.20;1.50;;;13.40;56.80;;;;;;5055309;28;20021;-73
2022/04/08 10:04:27;;;;;;;6.32;1.50;;;13.50;57.40;;;;;;5054801;28;20041;-72
2022/04/08 10:06:53;;;;;;;6.35;1.45;;;13.50;56.70;;;;;;5055089;28;20470;-75
2022/04/08 10:09:21;;;;;;;6.18;1.30;;;13.50;57.00;;;;;;5055030;28;20031;-74
2022/04/08 10:12:08;;;;;;;6.60;1.50;;;13.50;57.10;;;;;;5054357;28;20025;-74
2022/04/08 10:14:52;;;;;;;6.13;1.25;;;13.60;56.50;;;;;;5053999;28;20044;-74
2022/04/08 10:17:18;;;;;;;4.63;1.40;;;13.70;55.30;;;;;;5055131;28;20017;-74
2022/04/08 10:19:44;;;;;;;4.25;1.33;;;13.70;55.70;;;;;;5053703;28;20025;-73
2022/04/08 10:22:18;;;;;;;6.55;1.45;;;13.80;54.80;;;;;;5053689;28;20120;-74
2022/04/08 10:24:57;;;;;;;4.18;1.20;;;13.90;54.30;;;;;;5054261;28;20075;-74
2022/04/08 10:27:30;;;;;;;7.63;1.17;;;13.90;52.90;;;;;;5054772;28;20053;-74
2022/04/08 10:29:56;;;;;;;4.57;1.00;;;13.90;52.10;;;;;;5055032;28;20083;-74
2022/04/08 10:32:21;;;;;;;3.60;1.10;;;13.80;52.30;;;;;;5054807;28;20029;-73
2022/04/08 10:34:49;;;;;;;2.67;1.20;;;13.80;52.50;;;;;;5053732;28;20143;-74
2022/04/08 10:37:16;;;;;;;4.65;0.90;;;13.80;51.50;;;;;;5054660;28;20028;-73
2022/04/08 10:39:53;;;;;;;5.15;1.55;;;13.80;51.60;;;;;;5053912;28;20031;-73
2022/04/08 10:42:22;;;;;;;4.68;1.40;;;13.70;51.20;;;;;;5054632;28;20094;-74
2022/04/08 10:44:48;;;;;;;2.92;1.13;;;13.70;51.40;;;;;;5053936;28;20290;-74
2022/04/08 10:47:20;;;;;;;3.78;1.00;;;13.80;51.00;;;;;;5053090;28;20359;-74
2022/04/08 10:50:04;;;;;;;5.03;1.33;;;13.80;51.10;;;;;;5053634;28;20496;-73
2022/04/08 10:52:38;;;;;;;5.00;1.40;;;13.80;51.10;;;;;;5054136;28;20519;-73
2022/04/08 10:55:05;;;;;;;2.63;1.10;;;13.80;51.30;;;;;;5053816;28;20025;-74
2022/04/08 10:57:44;;;;;;;2.42;1.10;;;13.90;51.20;;;;;;5053663;28;20025;-72
2022/04/08 11:00:15;;;;;;;3.30;1.05;;;13.90;51.10;;;;;;5054296;28;20033;-73
2022/04/08 11:02:43;;;;;;;2.88;1.15;;;14.00;51.10;;;;;;5053208;28;20033;-75
2022/04/08 11:05:11;;;;;;;1.95;1.23;;;14.00;50.60;;;;;;5054014;28;20527;-74
2022/04/08 11:07:40;;;;;;;3.20;0.90;;;14.00;50.40;;;;;;5053526;28;20032;-72
2022/04/08 11:10:12;;;;;;;3.70;1.23;;;14.10;50.50;;;;;;5053980;28;20036;-74
2022/04/08 11:12:51;;;;;;;6.05;1.42;;;14.10;50.70;;;;;;5053181;28;20056;-74
2022/04/08 11:15:27;;;;;;;2.58;1.02;;;14.10;51.50;;;;;;5053966;28;20044;-74
2022/04/08 11:17:53;;;;;;;3.58;1.20;;;14.20;52.00;;;;;;5053318;28;20025;-74
2022/04/08 11:20:21;;;;;;;5.43;1.20;;;14.30;52.10;;;;;;5053595;28;20166;-74
2022/04/08 11:22:54;;;;;;;3.58;1.42;;;14.40;52.40;;;;;;5053001;28;20029;-73
2022/04/08 11:25:28;;;;;;;2.85;1.10;;;14.50;52.10;;;;;;5053771;28;20033;-74
2022/04/08 11:28:20;;;;;;;2.58;0.98;;;14.60;51.50;;;;;;5052879;28;20028;-74
2022/04/08 11:33:31;;;;;;;1.95;1.13;;;14.80;51.80;;;;;;5053218;28;19974;-74
2022/04/08 11:36:03;;;;;;;2.25;1.02;;;14.90;51.00;;;;;;5053576;28;20386;-73
2022/04/08 11:38:30;;;;;;;2.58;0.90;;;14.90;50.80;;;;;;5053545;28;20040;-74
2022/04/08 11:40:56;;;;;;;2.28;0.93;;;14.90;51.10;;;;;;5052487;28;20026;-73
2022/04/08 11:43:22;;;;;;;1.70;0.90;;;15.00;51.00;;;;;;5053431;28;20044;-74
2022/04/08 11:45:52;;;;;;;2.10;0.90;;;15.00;50.60;;;;;;5052794;28;20029;-74
2022/04/08 11:48:23;;;;;;;3.53;0.90;;;15.00;50.50;;;;;;5053527;28;20017;-74
2022/04/08 11:50:49;;;;;;;2.08;0.80;;;15.10;50.90;;;;;;5052433;28;20032;-74
2022/04/08 11:53:20;;;;;;;1.63;0.80;;;15.10;51.00;;;;;;5052918;28;20033;-74
2022/04/08 11:55:57;;;;;;;1.77;1.00;;;15.10;50.90;;;;;;5052612;28;20063;-73
2022/04/08 11:58:24;;;;;;;6.20;0.77;;;15.10;50.90;;;;;;5052551;28;20028;-75
2022/04/08 12:00:50;;;;;;;3.53;0.85;;;15.10;50.60;;;;;;5052502;28;20053;-73
2022/04/08 12:03:29;;;;;;;2.60;0.80;;;15.10;50.60;;;;;;5053179;28;20102;-74
2022/04/08 12:05:55;;;;;;;1.70;0.85;;;15.20;50.70;;;;;;5052331;28;20033;-74
2022/04/08 12:08:22;;;;;;;1.30;0.50;;;15.30;51.60;;;;;;5052922;28;20060;-74
2022/04/08 12:10:57;;;;;;;1.77;0.70;;;15.50;51.30;;;;;;5052046;28;20029;-74
2022/04/08 12:13:24;;;;;;;2.05;0.88;;;15.60;50.70;;;;;;5052806;28;20056;-73
2022/04/08 12:15:54;;;;;;;4.00;0.90;;;15.70;50.90;;;;;;5052243;28;20025;-74
2022/04/08 12:18:32;;;;;;;1.98;0.60;;;15.80;49.80;;;;;;5052834;28;20107;-75
2022/04/08 12:21:03;;;;;;;2.38;0.80;;;15.80;49.80;;;;;;5052101;28;20032;-73
2022/04/08 12:23:28;;;;;;;1.08;0.65;;;15.90;50.30;;;;;;5052321;28;20024;-73
2022/04/08 12:25:56;;;;;;;1.33;0.68;;;16.00;50.20;;;;;;5051988;28;20078;-74
2022/04/08 12:28:29;;;;;;;2.42;1.10;;;16.00;49.70;;;;;;5052140;28;20023;-74
2022/04/08 12:30:55;;;;;;;1.85;0.90;;;16.10;50.10;;;;;;5051824;28;20029;-73
2022/04/08 12:33:21;;;;;;;1.77;0.50;;;16.20;49.20;;;;;;5051112;28;20074;-74
2022/04/08 12:35:47;;;;;;;1.23;0.50;;;16.20;49.30;;;;;;5051862;28;20098;-73
2022/04/08 12:38:19;;;;;;;2.15;0.50;;;16.30;49.40;;;;;;5051894;28;20572;-74
2022/04/08 12:40:49;;;;;;;0.85;0.60;;;16.30;49.40;;;;;;5052193;28;20104;-73
2022/04/08 12:43:15;;;;;;;1.50;0.68;;;16.20;49.50;;;;;;5052375;28;20033;-74
2022/04/08 12:45:41;;;;;;;1.52;0.60;;;16.20;49.40;;;;;;5051392;28;20017;-73
2022/04/08 12:48:07;;;;;;;1.27;0.55;;;16.10;49.30;;;;;;5052386;28;20496;-74
2022/04/08 12:50:33;;;;;;;2.97;0.65;;;16.10;50.00;;;;;;5052077;28;20021;-74